createdAt,value
2018-04-12T00:00:12.788Z,21.93
2018-04-12T00:01:12.782Z,22.02
2018-04-12T00:02:12.775Z,21.91
2018-04-12T00:03:12.772Z,22.05
2018-04-12T00:04:12.763Z,21.99
2018-04-12T00:05:12.757Z,22.01
2018-04-12T00:06:12.753Z,22.02
2018-04-12T00:07:12.743Z,22.01
2018-04-12T00:08:12.739Z,22.01
2018-04-12T00:09:12.732Z,22.01
2018-04-12T00:10:12.724Z,22.08
2018-04-12T00:11:12.717Z,22.05
2018-04-12T00:12:12.714Z,22.02
2018-04-12T00:13:12.706Z,22.05
2018-04-12T00:14:12.699Z,22.04
2018-04-12T00:15:12.701Z,21.93
2018-04-12T00:16:12.693Z,21.96
2018-04-12T00:17:12.680Z,21.91
2018-04-12T00:18:12.673Z,21.89
2018-04-12T00:19:12.667Z,21.96
2018-04-12T00:20:12.664Z,21.90
2018-04-12T00:21:12.656Z,21.90
2018-04-12T00:22:12.649Z,21.94
2018-04-12T00:23:12.641Z,21.94
2018-04-12T00:24:12.637Z,22.02
2018-04-12T00:25:12.630Z,21.94
2018-04-12T00:26:12.623Z,21.94
2018-04-12T00:27:12.616Z,21.90
2018-04-12T00:28:12.610Z,21.93
2018-04-12T00:29:12.607Z,21.91
2018-04-12T00:30:12.598Z,21.93
2018-04-12T00:31:12.592Z,21.89
2018-04-12T00:32:12.584Z,21.86
2018-04-12T00:33:12.580Z,21.85
2018-04-12T00:34:12.573Z,21.82
2018-04-12T00:35:12.566Z,21.82
2018-04-12T00:36:12.561Z,21.75
2018-04-12T00:37:12.555Z,21.77
2018-04-12T00:38:12.546Z,21.86
2018-04-12T00:39:12.542Z,21.79
2018-04-12T00:40:12.538Z,21.79
2018-04-12T00:41:12.529Z,21.79
2018-04-12T00:42:12.521Z,21.77
2018-04-12T00:43:12.515Z,21.75
2018-04-12T00:44:12.509Z,21.70
2018-04-12T00:45:12.502Z,21.82
2018-04-12T00:46:12.495Z,21.68
2018-04-12T00:47:12.488Z,21.70
2018-04-12T00:48:12.483Z,21.70
2018-04-12T00:49:12.477Z,21.68
2018-04-12T00:50:12.472Z,21.67
2018-04-12T00:51:12.465Z,21.66
2018-04-12T00:52:12.456Z,21.63
2018-04-12T00:53:12.451Z,21.66
2018-04-12T00:54:12.443Z,21.63
2018-04-12T00:55:12.442Z,21.67
2018-04-12T00:56:12.430Z,21.64
2018-04-12T00:57:12.424Z,21.63
2018-04-12T00:58:12.417Z,21.58
2018-04-12T00:59:12.413Z,21.58
2018-04-12T01:00:12.405Z,21.63
2018-04-12T01:01:12.400Z,21.53
2018-04-12T01:02:12.391Z,21.59
2018-04-12T01:03:12.386Z,21.52
2018-04-12T01:04:12.380Z,21.52
2018-04-12T01:05:12.372Z,21.51
2018-04-12T01:06:12.365Z,21.45
2018-04-12T01:07:12.359Z,21.43
2018-04-12T01:08:12.354Z,21.42
2018-04-12T01:09:12.346Z,21.43
2018-04-12T01:10:12.339Z,21.40
2018-04-12T01:11:12.332Z,21.40
2018-04-12T01:12:12.327Z,21.42
2018-04-12T01:13:12.320Z,21.37
2018-04-12T01:14:12.318Z,21.38
2018-04-12T01:15:12.306Z,21.34
2018-04-12T01:16:12.301Z,21.40
2018-04-12T01:17:12.293Z,21.37
2018-04-12T01:18:12.285Z,21.31
2018-04-12T01:19:12.284Z,21.43
2018-04-12T01:20:12.273Z,21.42
2018-04-12T01:21:12.266Z,21.46
2018-04-12T01:22:12.260Z,21.37
2018-04-12T01:23:12.253Z,21.48
2018-04-12T01:24:12.246Z,21.37
2018-04-12T01:25:12.241Z,21.36
2018-04-12T01:26:12.231Z,21.33
2018-04-12T01:27:12.225Z,21.36
2018-04-12T01:28:12.219Z,21.36
2018-04-12T01:29:12.212Z,21.36
2018-04-12T01:30:12.207Z,21.34
2018-04-12T01:31:12.198Z,21.30
2018-04-12T01:32:12.192Z,21.37
2018-04-12T01:33:12.186Z,21.33
2018-04-12T01:34:12.179Z,21.36
2018-04-12T01:35:12.171Z,21.31
2018-04-12T01:36:12.165Z,21.38
2018-04-12T01:37:12.159Z,21.36
2018-04-12T01:38:12.151Z,21.36
2018-04-12T01:39:12.144Z,21.31
2018-04-12T01:40:12.138Z,21.36
2018-04-12T01:41:12.132Z,21.36
2018-04-12T01:42:12.123Z,21.38
2018-04-12T01:43:12.118Z,21.36
2018-04-12T01:44:12.112Z,21.36
2018-04-12T01:45:12.106Z,21.38
2018-04-12T01:46:12.103Z,21.31
2018-04-12T01:47:12.089Z,21.34
2018-04-12T01:48:12.083Z,21.36
2018-04-12T01:49:12.078Z,21.33
2018-04-12T01:50:12.069Z,21.38
2018-04-12T01:51:12.063Z,21.34
2018-04-12T01:52:12.056Z,21.33
2018-04-12T01:53:12.099Z,21.31
2018-04-12T01:54:12.043Z,21.38
2018-04-12T01:55:12.036Z,21.38
2018-04-12T01:56:12.031Z,21.38
2018-04-12T01:57:12.023Z,21.45
2018-04-12T01:58:12.015Z,21.42
2018-04-12T01:59:12.008Z,21.42
2018-04-12T02:00:12.003Z,21.45
2018-04-12T02:01:11.996Z,21.40
2018-04-12T02:02:11.991Z,21.48
2018-04-12T02:03:11.981Z,21.40
2018-04-12T02:04:11.975Z,21.45
2018-04-12T02:05:11.969Z,21.43
2018-04-12T02:06:11.961Z,21.42
2018-04-12T02:07:11.956Z,21.48
2018-04-12T02:08:11.950Z,21.42
2018-04-12T02:09:11.943Z,21.46
2018-04-12T02:10:11.937Z,21.38
2018-04-12T02:11:11.930Z,21.38
2018-04-12T02:12:11.924Z,21.37
2018-04-12T02:13:11.917Z,21.46
2018-04-12T02:14:11.911Z,21.40
2018-04-12T02:15:11.903Z,21.34
2018-04-12T02:16:11.897Z,21.45
2018-04-12T02:17:11.891Z,21.38
2018-04-12T02:18:11.885Z,21.43
2018-04-12T02:19:11.878Z,21.36
2018-04-12T02:20:11.871Z,21.33
2018-04-12T02:21:11.864Z,21.43
2018-04-12T02:22:11.858Z,21.38
2018-04-12T02:23:11.851Z,21.45
2018-04-12T02:24:11.845Z,21.40
2018-04-12T02:25:11.837Z,21.46
2018-04-12T02:26:11.830Z,21.37
2018-04-12T02:27:11.824Z,21.48
2018-04-12T02:28:11.817Z,21.52
2018-04-12T02:29:11.810Z,21.55
2018-04-12T02:30:11.803Z,21.53
2018-04-12T02:31:11.797Z,21.58
2018-04-12T02:32:11.802Z,21.52
2018-04-12T02:33:11.822Z,21.59
2018-04-12T02:34:11.778Z,21.64
2018-04-12T02:35:11.772Z,21.59
2018-04-12T02:36:11.765Z,21.58
2018-04-12T02:37:11.760Z,21.59
2018-04-12T02:38:11.750Z,21.67
2018-04-12T02:39:11.745Z,21.64
2018-04-12T02:40:11.738Z,21.66
2018-04-12T02:41:11.732Z,21.61
2018-04-12T02:42:11.726Z,21.63
2018-04-12T02:43:11.718Z,21.64
2018-04-12T02:44:11.714Z,21.55
2018-04-12T02:45:11.705Z,21.63
2018-04-12T02:46:11.699Z,21.61
2018-04-12T02:47:11.694Z,21.64
2018-04-12T02:48:11.686Z,21.53
2018-04-12T02:49:11.680Z,21.53
2018-04-12T02:50:11.674Z,21.53
2018-04-12T02:51:11.669Z,21.51
2018-04-12T02:52:11.660Z,21.56
2018-04-12T02:53:11.654Z,21.53
2018-04-12T02:54:11.650Z,21.49
2018-04-12T02:55:11.642Z,21.53
2018-04-12T02:56:11.635Z,21.51
2018-04-12T02:57:11.628Z,21.52
2018-04-12T02:58:11.622Z,21.48
2018-04-12T02:59:11.615Z,21.55
2018-04-12T03:00:11.611Z,21.55
2018-04-12T03:01:11.607Z,21.55
2018-04-12T03:02:11.605Z,21.53
2018-04-12T03:03:11.588Z,21.49
2018-04-12T03:04:11.581Z,21.52
2018-04-12T03:05:11.577Z,21.53
2018-04-12T03:06:11.568Z,21.56
2018-04-12T03:07:11.561Z,21.56
2018-04-12T03:08:11.555Z,21.43
2018-04-12T03:09:11.549Z,21.53
2018-04-12T03:10:11.542Z,21.52
2018-04-12T03:11:11.536Z,21.58
2018-04-12T03:12:11.529Z,21.61
2018-04-12T03:13:11.522Z,21.58
2018-04-12T03:14:11.514Z,21.63
2018-04-12T03:15:11.508Z,21.61
2018-04-12T03:16:11.502Z,21.55
2018-04-12T03:17:11.495Z,21.55
2018-04-12T03:18:11.490Z,21.61
2018-04-12T03:19:11.482Z,21.63
2018-04-12T03:20:11.476Z,21.56
2018-04-12T03:21:11.474Z,21.56
2018-04-12T03:22:11.462Z,21.68
2018-04-12T03:23:11.456Z,21.61
2018-04-12T03:24:11.450Z,21.63
2018-04-12T03:25:11.445Z,21.59
2018-04-12T03:26:11.437Z,21.55
2018-04-12T03:27:11.430Z,21.61
2018-04-12T03:28:11.423Z,21.58
2018-04-12T03:29:11.418Z,21.64
2018-04-12T03:30:11.417Z,21.67
2018-04-12T03:31:11.408Z,21.56
2018-04-12T03:32:11.396Z,21.51
2018-04-12T03:33:11.391Z,21.55
2018-04-12T03:34:11.385Z,21.51
2018-04-12T03:35:11.377Z,21.55
2018-04-12T03:36:11.373Z,21.51
2018-04-12T03:37:11.364Z,21.52
2018-04-12T03:38:11.366Z,21.43
2018-04-12T03:39:11.352Z,21.45
2018-04-12T03:40:11.344Z,21.42
2018-04-12T03:41:11.339Z,21.37
2018-04-12T03:42:11.352Z,21.45
2018-04-12T03:43:11.335Z,21.46
2018-04-12T03:44:11.317Z,21.49
2018-04-12T03:45:11.311Z,21.38
2018-04-12T03:46:11.304Z,21.45
2018-04-12T03:47:11.297Z,21.46
2018-04-12T03:48:11.291Z,21.42
2018-04-12T03:49:11.358Z,21.42
2018-04-12T03:50:11.277Z,21.46
2018-04-12T03:51:11.273Z,21.38
2018-04-12T03:52:11.265Z,21.42
2018-04-12T03:53:11.258Z,21.38
2018-04-12T03:54:11.251Z,21.38
2018-04-12T03:55:11.244Z,21.43
2018-04-12T03:56:11.237Z,21.38
2018-04-12T03:57:11.231Z,21.37
2018-04-12T03:58:11.225Z,21.30
2018-04-12T03:59:11.218Z,21.33
2018-04-12T04:00:11.211Z,21.31
2018-04-12T04:01:11.225Z,21.33
2018-04-12T04:02:11.198Z,21.33
2018-04-12T04:03:11.191Z,21.36
2018-04-12T04:04:11.186Z,21.33
2018-04-12T04:05:11.178Z,21.38
2018-04-12T04:06:11.170Z,21.34
2018-04-12T04:07:11.164Z,21.31
2018-04-12T04:08:11.159Z,21.36
2018-04-12T04:09:11.154Z,21.37
2018-04-12T04:10:11.144Z,21.40
2018-04-12T04:11:11.137Z,21.37
2018-04-12T04:12:11.130Z,21.37
2018-04-12T04:13:11.125Z,21.36
2018-04-12T04:14:11.117Z,21.36
2018-04-12T04:15:11.110Z,21.30
2018-04-12T04:16:11.105Z,21.28
2018-04-12T04:17:11.097Z,21.38
2018-04-12T04:18:11.090Z,21.31
2018-04-12T04:19:11.085Z,21.34
2018-04-12T04:20:11.077Z,21.26
2018-04-12T04:21:11.075Z,21.27
2018-04-12T04:22:11.063Z,21.34
2018-04-12T04:23:11.058Z,21.27
2018-04-12T04:24:11.050Z,21.33
2018-04-12T04:25:11.044Z,21.19
2018-04-12T04:26:11.040Z,21.22
2018-04-12T04:27:11.029Z,21.19
2018-04-12T04:28:11.043Z,21.18
2018-04-12T04:29:11.021Z,21.27
2018-04-12T04:30:11.011Z,21.22
2018-04-12T04:31:11.003Z,21.21
2018-04-12T04:32:10.997Z,21.19
2018-04-12T04:33:10.992Z,21.18
2018-04-12T04:34:10.983Z,21.18
2018-04-12T04:35:10.977Z,21.28
2018-04-12T04:36:10.971Z,21.15
2018-04-12T04:37:10.966Z,21.19
2018-04-12T04:38:10.958Z,21.19
2018-04-12T04:39:10.954Z,21.28
2018-04-12T04:40:10.943Z,21.18
2018-04-12T04:41:10.940Z,21.26
2018-04-12T04:42:10.929Z,21.18
2018-04-12T04:43:10.923Z,21.18
2018-04-12T04:44:10.917Z,21.19
2018-04-12T04:45:10.911Z,21.24
2018-04-12T04:46:10.901Z,21.24
2018-04-12T04:47:10.896Z,21.16
2018-04-12T04:48:10.893Z,21.24
2018-04-12T04:49:10.882Z,21.09
2018-04-12T04:50:10.875Z,21.06
2018-04-12T04:51:10.868Z,21.06
2018-04-12T04:52:10.861Z,21.13
2018-04-12T04:53:10.855Z,21.19
2018-04-12T04:54:10.847Z,21.16
2018-04-12T04:55:10.841Z,21.16
2018-04-12T04:56:10.834Z,21.06
2018-04-12T04:57:10.828Z,21.12
2018-04-12T04:58:10.825Z,21.12
2018-04-12T04:59:10.813Z,21.05
2018-04-12T05:00:10.808Z,21.09
2018-04-12T05:01:10.800Z,21.01
2018-04-12T05:02:10.792Z,21.05
2018-04-12T05:03:10.787Z,21.00
2018-04-12T05:04:10.783Z,21.05
2018-04-12T05:05:10.772Z,20.98
2018-04-12T05:06:10.765Z,21.01
2018-04-12T05:07:10.759Z,21.03
2018-04-12T05:08:10.754Z,21.00
2018-04-12T05:09:10.748Z,21.05
2018-04-12T05:10:10.737Z,21.03
2018-04-12T05:11:10.731Z,21.09
2018-04-12T05:12:10.724Z,21.05
2018-04-12T05:13:10.718Z,21.12
2018-04-12T05:14:10.709Z,21.05
2018-04-12T05:15:10.703Z,20.96
2018-04-12T05:16:10.696Z,20.98
2018-04-12T05:17:10.690Z,21.05
2018-04-12T05:18:10.683Z,21.06
2018-04-12T05:19:10.677Z,21.01
2018-04-12T05:20:10.672Z,21.01
2018-04-12T05:21:10.664Z,21.11
2018-04-12T05:22:10.655Z,21.03
2018-04-12T05:23:10.649Z,21.09
2018-04-12T05:24:10.640Z,21.03
2018-04-12T05:25:10.735Z,21.08
2018-04-12T05:26:10.627Z,21.05
2018-04-12T05:27:10.620Z,21.08
2018-04-12T05:28:10.613Z,21.05
2018-04-12T05:29:10.607Z,21.01
2018-04-12T05:30:10.602Z,20.96
2018-04-12T05:31:10.597Z,20.97
2018-04-12T05:32:10.589Z,20.98
2018-04-12T05:33:10.604Z,20.93
2018-04-12T05:34:10.573Z,20.94
2018-04-12T05:35:10.565Z,20.98
2018-04-12T05:36:10.558Z,21.01
2018-04-12T05:37:10.554Z,21.05
2018-04-12T05:38:10.548Z,20.96
2018-04-12T05:39:10.538Z,21.05
2018-04-12T05:40:10.531Z,21.08
2018-04-12T05:41:10.525Z,20.97
2018-04-12T05:42:10.517Z,21.05
2018-04-12T05:43:10.511Z,21.08
2018-04-12T05:44:10.503Z,21.08
2018-04-12T05:45:10.497Z,20.97
2018-04-12T05:46:10.489Z,20.93
2018-04-12T05:47:10.483Z,21.00
2018-04-12T05:48:10.485Z,21.06
2018-04-12T05:49:10.469Z,21.06
2018-04-12T05:50:10.462Z,20.94
2018-04-12T05:51:10.454Z,20.94
2018-04-12T05:52:10.447Z,20.93
2018-04-12T05:53:10.440Z,20.93
2018-04-12T05:54:10.432Z,20.98
2018-04-12T05:55:10.428Z,20.90
2018-04-12T05:56:10.419Z,20.97
2018-04-12T05:57:10.412Z,21.00
2018-04-12T05:58:10.409Z,20.94
2018-04-12T05:59:10.398Z,20.96
2018-04-12T06:00:10.391Z,20.94
2018-04-12T06:01:10.386Z,20.94
2018-04-12T06:02:10.377Z,21.01
2018-04-12T06:03:10.370Z,21.05
2018-04-12T06:04:10.366Z,21.06
2018-04-12T06:05:10.358Z,21.08
2018-04-12T06:06:10.350Z,20.97
2018-04-12T06:07:10.344Z,20.98
2018-04-12T06:08:10.336Z,20.90
2018-04-12T06:09:10.331Z,20.94
2018-04-12T06:10:10.323Z,20.90
2018-04-12T06:11:10.315Z,20.90
2018-04-12T06:12:10.310Z,20.83
2018-04-12T06:13:10.303Z,20.91
2018-04-12T06:14:10.295Z,20.93
2018-04-12T06:15:10.287Z,20.94
2018-04-12T06:16:10.281Z,20.93
2018-04-12T06:17:10.277Z,20.94
2018-04-12T06:18:10.269Z,20.91
2018-04-12T06:19:10.259Z,20.94
2018-04-12T06:20:10.253Z,20.87
2018-04-12T06:21:10.246Z,20.90
2018-04-12T06:22:10.242Z,20.88
2018-04-12T06:23:10.233Z,20.82
2018-04-12T06:24:10.225Z,20.82
2018-04-12T06:25:10.219Z,20.85
2018-04-12T06:26:10.212Z,20.79
2018-04-12T06:27:10.203Z,20.87
2018-04-12T06:28:10.198Z,20.85
2018-04-12T06:29:10.190Z,20.87
2018-04-12T06:30:10.183Z,20.87
2018-04-12T06:31:10.175Z,20.83
2018-04-12T06:32:10.168Z,20.85
2018-04-12T06:33:10.161Z,20.81
2018-04-12T06:34:10.157Z,20.82
2018-04-12T06:35:10.149Z,20.85
2018-04-12T06:36:10.139Z,20.82
2018-04-12T06:37:10.132Z,20.85
2018-04-12T06:38:10.129Z,20.75
2018-04-12T06:39:10.121Z,20.79
2018-04-12T06:40:10.111Z,20.79
2018-04-12T06:41:10.104Z,20.81
2018-04-12T06:42:10.098Z,20.87
2018-04-12T06:43:10.089Z,20.76
2018-04-12T06:44:10.082Z,20.83
2018-04-12T06:45:10.076Z,20.72
2018-04-12T06:46:10.068Z,20.75
2018-04-12T06:47:10.061Z,20.73
2018-04-12T06:48:10.054Z,20.76
2018-04-12T06:49:10.046Z,20.76
2018-04-12T06:50:10.039Z,20.79
2018-04-12T06:51:10.032Z,20.72
2018-04-12T06:52:10.026Z,20.75
2018-04-12T06:53:10.017Z,20.75
2018-04-12T06:54:10.010Z,20.66
2018-04-12T06:55:10.103Z,20.66
2018-04-12T06:56:09.995Z,20.71
2018-04-12T06:57:09.989Z,20.69
2018-04-12T06:58:09.980Z,20.66
2018-04-12T06:59:09.975Z,20.71
2018-04-12T07:00:09.966Z,20.61
2018-04-12T07:01:09.959Z,20.69
2018-04-12T07:02:09.956Z,20.68
2018-04-12T07:03:09.945Z,20.54
2018-04-12T07:04:09.938Z,20.64
2018-04-12T07:05:09.930Z,20.56
2018-04-12T07:06:09.922Z,20.58
2018-04-12T07:07:09.916Z,20.54
2018-04-12T07:08:09.907Z,20.57
2018-04-12T07:09:09.900Z,20.58
2018-04-12T07:10:09.892Z,20.54
2018-04-12T07:11:09.885Z,20.58
2018-04-12T07:12:09.878Z,20.54
2018-04-12T07:13:09.872Z,20.58
2018-04-12T07:14:09.862Z,20.63
2018-04-12T07:15:09.856Z,20.56
2018-04-12T07:16:09.848Z,20.58
2018-04-12T07:17:09.841Z,20.58
2018-04-12T07:18:09.833Z,20.57
2018-04-12T07:19:09.928Z,20.56
2018-04-12T07:20:09.819Z,20.66
2018-04-12T07:21:09.812Z,20.71
2018-04-12T07:22:09.804Z,20.71
2018-04-12T07:23:09.797Z,20.63
2018-04-12T07:24:09.790Z,20.58
2018-04-12T07:25:09.783Z,20.56
2018-04-12T07:26:09.774Z,20.54
2018-04-12T07:27:09.768Z,20.56
2018-04-12T07:28:09.760Z,20.66
2018-04-12T07:29:09.767Z,20.54
2018-04-12T07:30:09.747Z,20.66
2018-04-12T07:31:09.738Z,20.58
2018-04-12T07:32:09.731Z,20.54
2018-04-12T07:33:09.724Z,20.66
2018-04-12T07:34:09.721Z,20.54
2018-04-12T07:35:09.709Z,20.54
2018-04-12T07:36:09.702Z,20.53
2018-04-12T07:37:09.696Z,20.51
2018-04-12T07:38:09.687Z,20.44
2018-04-12T07:39:09.680Z,20.48
2018-04-12T07:40:09.673Z,20.35
2018-04-12T07:41:09.666Z,20.38
2018-04-12T07:42:09.657Z,20.41
2018-04-12T07:43:09.750Z,20.41
2018-04-12T07:44:09.643Z,20.35
2018-04-12T07:45:09.636Z,20.34
2018-04-12T07:46:09.628Z,20.37
2018-04-12T07:47:09.660Z,20.38
2018-04-12T07:48:09.613Z,20.34
2018-04-12T07:49:09.706Z,20.40
2018-04-12T07:50:09.598Z,20.38
2018-04-12T07:51:09.591Z,20.33
2018-04-12T07:52:09.584Z,20.38
2018-04-12T07:53:09.577Z,20.37
2018-04-12T07:54:09.568Z,20.37
2018-04-12T07:55:09.561Z,20.44
2018-04-12T07:56:09.553Z,20.44
2018-04-12T07:57:09.548Z,20.35
2018-04-12T07:58:09.538Z,20.42
2018-04-12T07:59:09.531Z,20.46
2018-04-12T08:00:09.524Z,20.35
2018-04-12T08:01:09.517Z,20.46
2018-04-12T08:02:09.554Z,20.54
2018-04-12T08:03:09.504Z,20.38
2018-04-12T08:04:09.495Z,20.38
2018-04-12T08:05:09.488Z,20.25
2018-04-12T08:06:09.480Z,20.31
2018-04-12T08:07:09.472Z,20.25
2018-04-12T08:08:09.464Z,20.19
2018-04-12T08:09:09.459Z,20.23
2018-04-12T08:10:09.448Z,20.31
2018-04-12T08:11:09.442Z,20.26
2018-04-12T08:12:09.433Z,20.27
2018-04-12T08:13:09.429Z,20.34
2018-04-12T08:14:09.422Z,20.38
2018-04-12T08:15:09.410Z,20.26
2018-04-12T08:16:09.404Z,20.37
2018-04-12T08:17:09.396Z,20.33
2018-04-12T08:18:09.390Z,20.31
2018-04-12T08:19:09.380Z,20.35
2018-04-12T08:20:09.374Z,20.30
2018-04-12T08:21:09.366Z,20.35
2018-04-12T08:22:09.362Z,20.33
2018-04-12T08:23:09.384Z,20.40
2018-04-12T08:24:09.343Z,20.35
2018-04-12T08:25:09.336Z,20.33
2018-04-12T08:26:09.328Z,20.30
2018-04-12T08:27:09.321Z,20.26
2018-04-12T08:28:09.315Z,20.20
2018-04-12T08:29:09.306Z,20.26
2018-04-12T08:30:09.299Z,20.19
2018-04-12T08:31:09.291Z,20.12
2018-04-12T08:32:09.284Z,20.07
2018-04-12T08:33:09.276Z,20.12
2018-04-12T08:34:09.267Z,20.12
2018-04-12T08:35:09.260Z,20.02
2018-04-12T08:36:09.253Z,20.04
2018-04-12T08:37:09.245Z,20.12
2018-04-12T08:38:09.236Z,20.05
2018-04-12T08:39:09.230Z,20.05
2018-04-12T08:40:09.221Z,20.04
2018-04-12T08:41:09.214Z,20.08
2018-04-12T08:42:09.205Z,20.05
2018-04-12T08:43:09.200Z,20.02
2018-04-12T08:44:09.191Z,20.05
2018-04-12T08:45:09.182Z,20.08
2018-04-12T08:46:09.174Z,20.08
2018-04-12T08:47:09.167Z,20.02
2018-04-12T08:48:09.160Z,20.05
2018-04-12T08:49:09.152Z,20.00
2018-04-12T08:50:09.143Z,20.02
2018-04-12T08:51:09.138Z,19.97
2018-04-12T08:52:09.128Z,19.97
2018-04-12T08:53:09.125Z,19.98
2018-04-12T08:54:09.112Z,19.94
2018-04-12T08:55:09.206Z,19.90
2018-04-12T08:56:09.096Z,20.02
2018-04-12T08:57:09.096Z,19.94
2018-04-12T08:58:09.082Z,19.95
2018-04-12T08:59:09.076Z,19.92
2018-04-12T09:00:09.066Z,20.02
2018-04-12T09:01:09.058Z,20.10
2018-04-12T09:02:09.049Z,20.01
2018-04-12T09:03:09.046Z,20.13
2018-04-12T09:04:09.036Z,20.08
2018-04-12T09:05:09.027Z,20.17
2018-04-12T09:06:09.019Z,20.02
2018-04-12T09:07:09.010Z,20.08
2018-04-12T09:08:09.003Z,20.01
2018-04-12T09:09:08.996Z,20.10
2018-04-12T09:10:08.988Z,20.13
2018-04-12T09:11:08.981Z,20.04
2018-04-12T09:12:08.977Z,20.08
2018-04-12T09:13:08.965Z,20.01
2018-04-12T09:14:08.958Z,20.02
2018-04-12T09:15:08.949Z,20.01
2018-04-12T09:16:08.951Z,20.17
2018-04-12T09:17:08.935Z,20.01
2018-04-12T09:18:08.927Z,20.07
2018-04-12T09:19:08.918Z,20.08
2018-04-12T09:20:08.912Z,20.05
2018-04-12T09:21:08.906Z,20.05
2018-04-12T09:22:08.894Z,20.01
2018-04-12T09:23:08.887Z,19.90
2018-04-12T09:24:08.883Z,19.95
2018-04-12T09:25:08.872Z,19.83
2018-04-12T09:26:08.864Z,19.90
2018-04-12T09:27:08.856Z,19.92
2018-04-12T09:28:08.854Z,19.94
2018-04-12T09:29:08.842Z,19.83
2018-04-12T09:30:08.833Z,19.76
2018-04-12T09:31:08.830Z,19.85
2018-04-12T09:32:08.818Z,19.85
2018-04-12T09:33:08.809Z,19.83
2018-04-12T09:34:08.814Z,19.79
2018-04-12T09:35:08.795Z,19.79
2018-04-12T09:36:08.786Z,19.86
2018-04-12T09:37:08.779Z,19.82
2018-04-12T09:38:08.772Z,19.82
2018-04-12T09:39:08.762Z,19.80
2018-04-12T09:40:08.754Z,19.79
2018-04-12T09:41:08.748Z,19.85
2018-04-12T09:42:08.737Z,19.86
2018-04-12T09:43:08.730Z,19.75
2018-04-12T09:44:08.724Z,19.68
2018-04-12T09:45:08.715Z,19.68
2018-04-12T09:46:08.706Z,19.72
2018-04-12T09:47:08.698Z,19.70
2018-04-12T09:48:08.690Z,19.78
2018-04-12T09:49:08.742Z,19.71
2018-04-12T09:50:08.674Z,19.76
2018-04-12T09:51:08.667Z,19.79
2018-04-12T09:52:08.660Z,19.86
2018-04-12T09:53:08.652Z,19.86
2018-04-12T09:54:08.642Z,19.83
2018-04-12T09:55:08.634Z,19.78
2018-04-12T09:56:08.626Z,19.78
2018-04-12T09:57:08.623Z,19.92
2018-04-12T09:58:08.612Z,19.85
2018-04-12T09:59:08.605Z,19.86
2018-04-12T10:00:08.658Z,20.00
2018-04-12T10:01:08.591Z,20.04
2018-04-12T10:02:08.577Z,20.08
2018-04-12T10:03:08.571Z,20.01
2018-04-12T10:04:08.564Z,20.01
2018-04-12T10:05:08.555Z,20.05
2018-04-12T10:06:08.546Z,20.02
2018-04-12T10:07:08.539Z,20.05
2018-04-12T10:08:08.531Z,20.12
2018-04-12T10:09:08.523Z,20.01
2018-04-12T10:10:08.517Z,20.07
2018-04-12T10:11:08.509Z,20.00
2018-04-12T10:12:08.500Z,20.02
2018-04-12T10:13:08.493Z,20.17
2018-04-12T10:14:08.485Z,20.13
2018-04-12T10:15:08.477Z,20.16
2018-04-12T10:16:08.468Z,20.10
2018-04-12T10:17:08.463Z,20.10
2018-04-12T10:18:08.452Z,20.16
2018-04-12T10:19:08.445Z,20.12
2018-04-12T10:20:08.438Z,20.19
2018-04-12T10:21:08.430Z,20.10
2018-04-12T10:22:08.422Z,20.10
2018-04-12T10:23:08.416Z,20.13
2018-04-12T10:24:08.407Z,20.16
2018-04-12T10:25:08.401Z,20.10
2018-04-12T10:26:08.392Z,20.16
2018-04-12T10:27:08.385Z,20.12
2018-04-12T10:28:08.377Z,20.10
2018-04-12T10:29:08.369Z,20.10
2018-04-12T10:30:08.361Z,20.12
2018-04-12T10:31:08.352Z,20.20
2018-04-12T10:32:08.347Z,20.17
2018-04-12T10:33:08.342Z,20.23
2018-04-12T10:34:08.334Z,20.26
2018-04-12T10:35:08.331Z,20.16
2018-04-12T10:36:08.319Z,20.13
2018-04-12T10:37:08.308Z,20.15
2018-04-12T10:38:08.299Z,20.19
2018-04-12T10:39:08.296Z,20.17
2018-04-12T10:40:08.285Z,20.20
2018-04-12T10:41:08.304Z,20.23
2018-04-12T10:42:08.268Z,20.33
2018-04-12T10:43:08.261Z,20.31
2018-04-12T10:44:08.253Z,20.37
2018-04-12T10:45:08.247Z,20.35
2018-04-12T10:46:08.247Z,20.37
2018-04-12T10:47:08.229Z,20.40
2018-04-12T10:48:08.235Z,20.42
2018-04-12T10:49:08.216Z,20.42
2018-04-12T10:50:08.210Z,20.46
2018-04-12T10:51:08.200Z,20.54
2018-04-12T10:52:08.197Z,20.54
2018-04-12T10:53:08.185Z,20.57
2018-04-12T10:54:08.178Z,20.63
2018-04-12T10:55:08.169Z,20.66
2018-04-12T10:56:08.162Z,20.68
2018-04-12T10:57:08.155Z,20.73
2018-04-12T10:58:08.183Z,20.76
2018-04-12T10:59:08.139Z,20.69
2018-04-12T11:00:08.132Z,20.76
2018-04-12T11:01:08.126Z,20.76
2018-04-12T11:02:08.118Z,20.81
2018-04-12T11:03:08.110Z,20.83
2018-04-12T11:04:08.106Z,20.88
2018-04-12T11:05:08.096Z,20.83
2018-04-12T11:06:08.090Z,20.85
2018-04-12T11:07:08.082Z,20.88
2018-04-12T11:08:08.074Z,20.90
2018-04-12T11:09:08.067Z,20.90
2018-04-12T11:10:08.069Z,20.90
2018-04-12T11:11:08.054Z,20.94
2018-04-12T11:12:08.045Z,20.97
2018-04-12T11:13:08.039Z,20.96
2018-04-12T11:14:08.031Z,20.96
2018-04-12T11:15:08.025Z,21.03
2018-04-12T11:16:08.016Z,21.00
2018-04-12T11:17:08.011Z,21.09
2018-04-12T11:18:08.013Z,21.06
2018-04-12T11:19:07.997Z,21.09
2018-04-12T11:20:07.991Z,21.09
2018-04-12T11:21:07.997Z,21.16
2018-04-12T11:22:07.973Z,21.26
2018-04-12T11:23:07.970Z,21.24
2018-04-12T11:24:07.967Z,21.18
2018-04-12T11:25:07.953Z,21.18
2018-04-12T11:26:07.946Z,21.30
2018-04-12T11:27:08.031Z,21.30
2018-04-12T11:28:07.932Z,21.30
2018-04-12T11:29:07.926Z,21.27
2018-04-12T11:30:07.919Z,21.34
2018-04-12T11:31:07.912Z,21.28
2018-04-12T11:32:07.905Z,21.27
2018-04-12T11:33:07.910Z,21.27
2018-04-12T11:34:07.943Z,21.33
2018-04-12T11:35:07.910Z,21.28
2018-04-12T11:36:07.878Z,21.30
2018-04-12T11:37:07.874Z,21.33
2018-04-12T11:38:07.861Z,21.37
2018-04-12T11:39:07.855Z,21.36
2018-04-12T11:40:07.862Z,21.52
2018-04-12T11:41:07.842Z,21.59
2018-04-12T11:42:07.833Z,21.64
2018-04-12T11:43:07.826Z,21.64
2018-04-12T11:44:07.820Z,21.58
2018-04-12T11:45:07.832Z,21.67
2018-04-12T11:46:07.815Z,21.81
2018-04-12T11:47:07.808Z,21.83
2018-04-12T11:48:07.803Z,21.85
2018-04-12T11:49:07.829Z,21.91
2018-04-12T11:50:07.788Z,21.93
2018-04-12T11:51:07.783Z,22.05
2018-04-12T11:52:07.776Z,22.15
2018-04-12T11:53:07.769Z,22.14
2018-04-12T11:54:07.763Z,22.31
2018-04-12T11:55:07.755Z,22.42
2018-04-12T11:56:07.774Z,22.35
2018-04-12T11:57:07.743Z,22.44
2018-04-12T11:58:07.736Z,22.51
2018-04-12T11:59:07.732Z,22.66
2018-04-12T12:00:07.723Z,22.79
2018-04-12T12:01:07.723Z,22.93
2018-04-12T12:02:07.711Z,23.01
2018-04-12T12:03:07.705Z,23.16
2018-04-12T12:04:07.701Z,23.42
2018-04-12T12:05:07.695Z,23.62
2018-04-12T12:06:07.688Z,23.59
2018-04-12T12:07:07.683Z,23.74
2018-04-12T12:08:07.676Z,23.86
2018-04-12T12:09:07.672Z,24.04
2018-04-12T12:10:07.665Z,24.16
2018-04-12T12:11:07.661Z,24.27
2018-04-12T12:12:07.654Z,24.33
2018-04-12T12:13:07.649Z,24.53
2018-04-12T12:14:07.644Z,24.63
2018-04-12T12:15:07.639Z,24.84
2018-04-12T12:16:07.637Z,24.98
2018-04-12T12:17:07.631Z,25.16
2018-04-12T12:18:07.624Z,25.30
2018-04-12T12:19:07.621Z,25.36
2018-04-12T12:20:07.616Z,25.38
2018-04-12T12:21:07.616Z,25.46
2018-04-12T12:22:07.608Z,25.81
2018-04-12T12:23:07.605Z,25.91
2018-04-12T12:24:07.599Z,25.98
2018-04-12T12:25:07.597Z,26.08
2018-04-12T12:26:07.592Z,26.21
2018-04-12T12:27:07.588Z,26.28
2018-04-12T12:28:07.586Z,26.23
2018-04-12T12:29:07.581Z,26.20
2018-04-12T12:30:07.576Z,26.23
2018-04-12T12:31:07.575Z,26.24
2018-04-12T12:32:07.569Z,26.41
2018-04-12T12:33:07.565Z,26.51
2018-04-12T12:34:07.561Z,26.65
2018-04-12T12:35:07.562Z,26.65
2018-04-12T12:36:07.555Z,26.64
2018-04-12T12:37:07.598Z,26.57
2018-04-12T12:38:07.549Z,26.65
2018-04-12T12:39:07.544Z,26.88
2018-04-12T12:40:07.542Z,26.91
2018-04-12T12:41:07.542Z,26.79
2018-04-12T12:42:07.534Z,26.69
2018-04-12T12:43:07.531Z,26.61
2018-04-12T12:44:07.534Z,26.72
2018-04-12T12:45:07.529Z,26.90
2018-04-12T12:46:07.523Z,27.18
2018-04-12T12:47:07.521Z,27.12
2018-04-12T12:48:08.056Z,27.06
2018-04-12T12:49:07.514Z,27.34
2018-04-12T12:50:07.511Z,27.59
2018-04-12T12:51:07.509Z,27.48
2018-04-12T12:52:07.504Z,27.61